Time;durP1;ratioP1;P1;durP2;ratioP2;P2;SDS_P1;SDS_P2;PMS_P1;PMS_P2;Temp;Humidity;BMP_temperature;BMP_pressure;BME280_temperature;BME280_humidity;BME280_pressure;Samples;Min_cycle;Max_cycle;Signal;HPM_P1;HPM_P2
2021/01/21 00:02:20;;;;;;;4.80;3.70;;;;;;;9.30;53.41;99192.25;6158225;28;20552;-68
2021/01/21 00:05:41;;;;;;;6.77;2.60;;;;;;;9.37;53.37;99200.75;6170574;28;20226;-69
2021/01/21 00:09:03;;;;;;;3.33;3.00;;;;;;;9.48;52.79;99205.59;6174423;28;20309;-69
2021/01/21 00:12:24;;;;;;;4.23;2.93;;;;;;;9.30;53.63;99205.25;6161704;28;20230;-69
2021/01/21 00:15:44;;;;;;;7.13;3.37;;;;;;;9.02;53.92;99215.59;6174631;28;20234;-69
2021/01/21 00:19:04;;;;;;;4.77;3.20;;;;;;;9.18;53.33;99192.63;6164757;28;20235;-69
2021/01/21 00:22:25;;;;;;;4.73;2.73;;;;;;;9.10;54.05;99194.59;6161257;28;20222;-70
2021/01/21 00:25:46;;;;;;;6.80;2.90;;;;;;;9.22;53.63;99189.88;6170357;28;20609;-68
2021/01/21 00:29:07;;;;;;;5.33;3.10;;;;;;;8.90;54.70;99193.44;6169556;28;20254;-68
2021/01/21 00:32:27;;;;;;;7.27;3.13;;;;;;;9.06;54.42;99196.44;6167945;28;21051;-68
2021/01/21 00:35:48;;;;;;;5.20;4.03;;;;;;;9.30;53.61;99183.63;6166621;28;20334;-68
2021/01/21 00:39:09;;;;;;;3.77;3.40;;;;;;;9.32;53.82;99181.81;6167701;28;20234;-69
2021/01/21 00:42:32;;;;;;;5.53;3.03;;;;;;;8.99;54.78;99159.41;6166329;28;20226;-68
2021/01/21 00:45:52;;;;;;;5.87;2.77;;;;;;;9.29;54.11;99172.38;6162008;28;20230;-68
2021/01/21 00:49:13;;;;;;;3.83;2.20;;;;;;;9.09;54.47;99164.31;6141701;28;20314;-68
2021/01/21 00:52:33;;;;;;;2.80;1.80;;;;;;;9.19;54.26;99166.63;6162282;28;20234;-69
2021/01/21 00:55:54;;;;;;;3.07;2.17;;;;;;;9.02;54.73;99163.66;6143407;28;20655;-68
2021/01/21 00:59:15;;;;;;;2.40;2.20;;;;;;;9.07;54.73;99167.84;6167061;28;20250;-68
2021/01/21 01:02:36;;;;;;;4.57;2.27;;;;;;;9.05;54.99;99137.59;6171407;28;20266;-68
2021/01/21 01:05:57;;;;;;;3.17;2.20;;;;;;;9.23;54.53;99138.81;6165839;28;20698;-68
2021/01/21 01:09:17;;;;;;;4.90;2.70;;;;;;;9.29;54.48;99130.00;6164917;28;20238;-69
2021/01/21 01:12:37;;;;;;;5.13;2.17;;;;;;;9.17;54.49;99118.19;6151418;28;20242;-68
2021/01/21 01:15:59;;;;;;;5.53;2.63;;;;;;;9.15;54.83;99118.25;6164811;28;20317;-68
2021/01/21 01:19:26;;;;;;;4.73;2.53;;;;;;;9.00;55.07;99129.94;6137768;28;20664;-69
2021/01/21 01:22:50;;;;;;;11.03;2.63;;;;;;;8.99;54.80;99122.19;6165768;28;20801;-69
2021/01/21 01:26:11;;;;;;;5.90;3.77;;;;;;;8.82;55.58;99131.34;6161387;28;20234;-68
2021/01/21 01:29:32;;;;;;;3.37;2.03;;;;;;;8.94;55.26;99106.78;6149808;28;20234;-67
2021/01/21 01:32:54;;;;;;;3.40;2.13;;;;;;;9.09;54.66;99097.66;6165138;28;20242;-68
2021/01/21 01:36:14;;;;;;;2.43;2.13;;;;;;;8.84;55.28;99090.63;6149840;28;20238;-68
2021/01/21 01:39:35;;;;;;;4.00;1.90;;;;;;;9.04;55.17;99083.97;6157117;28;20230;-69
2021/01/21 01:43:03;;;;;;;5.13;2.30;;;;;;;8.97;55.05;99069.47;6162782;28;20226;-68
2021/01/21 01:46:27;;;;;;;3.33;2.33;;;;;;;9.04;55.33;99073.59;6156376;28;20547;-69
2021/01/21 01:49:48;;;;;;;4.17;2.30;;;;;;;8.90;55.33;99065.34;6148523;28;20230;-68
2021/01/21 01:53:08;;;;;;;3.03;2.67;;;;;;;9.00;55.38;99062.44;6162165;28;20313;-68
2021/01/21 01:56:32;;;;;;;2.77;1.90;;;;;;;9.23;54.40;99047.91;6146708;28;20434;-69
2021/01/21 02:00:01;;;;;;;3.70;3.00;;;;;;;9.16;54.49;99062.81;6149243;28;20222;-69
2021/01/21 02:03:23;;;;;;;2.77;1.80;;;;;;;9.17;54.74;99059.34;6166130;28;20230;-69
2021/01/21 02:07:03;;;;;;;8.50;2.40;;;;;;;8.76;55.88;99051.06;6157140;28;20538;-69
2021/01/21 02:10:26;;;;;;;2.97;1.83;;;;;;;8.79;56.05;99048.34;6158576;28;20616;-68
2021/01/21 02:14:02;;;;;;;2.60;2.37;;;;;;;8.77;55.84;99029.38;6148611;28;20321;-68
2021/01/21 02:17:33;;;;;;;3.73;2.50;;;;;;;8.99;55.29;99028.72;6148466;28;20614;-69
2021/01/21 02:21:18;;;;;;;4.23;3.00;;;;;;;9.04;55.60;99029.44;6154481;28;20234;-72
2021/01/21 02:25:02;;;;;;;3.53;1.70;;;;;;;8.89;55.80;99011.75;6147408;28;20245;-69
2021/01/21 02:28:49;;;;;;;2.33;2.13;;;;;;;8.96;55.43;99008.06;6149601;28;20239;-68
2021/01/21 02:32:55;;;;;;;2.43;2.13;;;;;;;8.95;55.64;99006.34;6163959;28;20325;-69
2021/01/21 02:36:24;;;;;;;3.20;1.80;;;;;;;8.98;55.66;99001.09;6144865;28;20258;-69
2021/01/21 02:39:48;;;;;;;2.47;1.50;;;;;;;9.17;55.30;98998.72;6151435;28;20329;-68
2021/01/21 02:43:11;;;;;;;2.70;2.17;;;;;;;8.73;56.23;98983.66;6168931;28;20226;-68
2021/01/21 02:46:34;;;;;;;2.67;1.97;;;;;;;8.75;56.19;98978.44;6156923;28;20263;-69
2021/01/21 02:49:56;;;;;;;2.03;1.50;;;;;;;8.51;57.05;98964.44;6169912;28;20226;-69
2021/01/21 02:53:17;;;;;;;3.43;1.77;;;;;;;8.87;56.03;98946.88;6168731;28;20234;-68
2021/01/21 02:56:42;;;;;;;3.50;2.00;;;;;;;8.85;56.23;98939.16;6161754;28;20756;-68
2021/01/21 03:00:07;;;;;;;4.60;2.23;;;;;;;9.01;55.70;98942.09;6155013;28;20325;-69
2021/01/21 03:03:29;;;;;;;1.83;1.63;;;;;;;8.96;55.90;98927.59;6168036;28;20875;-67
2021/01/21 03:06:57;;;;;;;3.27;2.97;;;;;;;8.84;56.02;98921.88;6171300;28;20338;-68
2021/01/21 03:10:27;;;;;;;2.03;1.87;;;;;;;8.63;56.58;98909.59;6161328;28;20233;-69
2021/01/21 03:13:47;;;;;;;3.57;2.10;;;;;;;8.88;56.07;98899.28;6154335;28;20612;-69
2021/01/21 03:17:10;;;;;;;1.87;1.67;;;;;;;8.94;55.92;98896.47;6170451;28;20242;-69
2021/01/21 03:20:34;;;;;;;3.57;2.20;;;;;;;8.74;56.28;98897.09;6161239;28;20231;-67
2021/01/21 03:23:55;;;;;;;4.50;1.70;;;;;;;9.30;54.97;98877.94;6157838;28;20227;-69
2021/01/21 03:27:26;;;;;;;1.60;1.50;;;;;;;8.82;56.18;98892.53;6142491;28;20234;-69
2021/01/21 03:30:48;;;;;;;3.27;2.13;;;;;;;8.89;55.75;98882.78;6156831;28;20230;-68
2021/01/21 03:34:08;;;;;;;4.20;2.33;;;;;;;8.92;55.91;98872.31;6152890;28;20393;-69
2021/01/21 03:37:36;;;;;;;2.10;1.90;;;;;;;8.96;55.71;98858.34;6170102;28;20250;-68
2021/01/21 03:40:57;;;;;;;4.40;2.33;;;;;;;9.13;55.07;98855.16;6154119;28;20467;-68
2021/01/21 03:44:21;;;;;;;2.33;1.67;;;;;;;9.22;54.79;98852.22;6151142;28;20335;-69
2021/01/21 03:47:49;;;;;;;6.70;2.43;;;;;;;9.11;54.83;98846.59;6165625;28;20588;-69
2021/01/21 03:51:13;;;;;;;2.60;1.83;;;;;;;9.20;54.97;98830.66;6148025;28;20230;-69
2021/01/21 03:54:41;;;;;;;3.47;2.30;;;;;;;9.01;55.55;98827.84;6165096;28;20337;-69
2021/01/21 03:58:10;;;;;;;2.90;2.30;;;;;;;9.19;54.93;98808.22;6163749;28;20234;-69
2021/01/21 04:01:42;;;;;;;2.90;2.37;;;;;;;9.13;55.10;98803.22;6166210;28;20250;-69
2021/01/21 04:05:04;;;;;;;3.27;2.10;;;;;;;9.32;54.85;98787.81;6159191;28;20238;-68
2021/01/21 04:08:25;;;;;;;4.73;2.33;;;;;;;9.37;54.71;98785.91;6153674;28;20390;-69
2021/01/21 04:11:54;;;;;;;3.63;2.30;;;;;;;8.79;56.08;98781.03;6137579;28;20289;-69
2021/01/21 04:15:14;;;;;;;3.03;2.33;;;;;;;9.39;54.61;98778.06;6167941;28;20226;-69
2021/01/21 04:18:38;;;;;;;2.60;1.70;;;;;;;9.33;54.62;98778.28;6151896;28;20321;-68
2021/01/21 04:22:02;;;;;;;4.43;1.90;;;;;;;9.00;55.48;98784.63;6164673;28;20239;-68
2021/01/21 04:25:24;;;;;;;3.13;2.07;;;;;;;9.14;55.16;98773.75;6153897;28;20250;-69
2021/01/21 04:28:49;;;;;;;2.70;1.93;;;;;;;9.27;54.60;98769.81;6166478;28;20609;-69
2021/01/21 04:32:09;;;;;;;2.53;1.70;;;;;;;8.97;55.35;98757.91;6158132;28;20234;-68
2021/01/21 04:35:30;;;;;;;3.77;2.17;;;;;;;9.29;54.50;98759.38;6155042;28;20258;-69
2021/01/21 04:38:51;;;;;;;3.10;1.43;;;;;;;8.96;54.90;98764.03;6165188;28;20231;-69
2021/01/21 04:42:14;;;;;;;2.40;2.17;;;;;;;9.17;54.77;98755.47;6152912;28;20222;-69
2021/01/21 04:45:37;;;;;;;2.40;1.80;;;;;;;9.17;54.73;98742.50;6168438;28;20234;-69
2021/01/21 04:48:59;;;;;;;2.60;2.20;;;;;;;9.31;54.75;98754.13;6166940;28;20258;-68
2021/01/21 04:52:22;;;;;;;3.17;1.93;;;;;;;9.03;55.45;98740.41;6141136;28;20632;-68
2021/01/21 04:55:46;;;;;;;2.70;2.50;;;;;;;8.80;55.84;98725.63;6145380;28;20252;-68
2021/01/21 04:59:27;;;;;;;4.03;1.83;;;;;;;8.76;55.94;98729.25;6146208;28;20227;-68
2021/01/21 05:02:50;;;;;;;4.33;1.90;;;;;;;8.67;56.43;98704.44;6151510;28;20535;-68
2021/01/21 05:06:34;;;;;;;3.90;2.20;;;;;;;8.99;55.82;98702.44;6164755;28;20235;-69
2021/01/21 05:10:01;;;;;;;5.17;2.43;;;;;;;8.91;55.60;98703.63;6169793;28;20238;-68
2021/01/21 05:13:21;;;;;;;1.90;1.60;;;;;;;8.96;55.42;98699.13;6142139;28;20242;-68
2021/01/21 05:17:00;;;;;;;3.17;2.00;;;;;;;8.78;55.83;98693.69;6165301;28;20238;-69
2021/01/21 05:20:40;;;;;;;5.57;1.77;;;;;;;8.92;55.37;98689.72;6168454;28;20567;-69
2021/01/21 05:24:32;;;;;;;4.77;1.80;;;;;;;8.66;56.03;98681.13;6145456;28;20255;-68
2021/01/21 05:28:13;;;;;;;4.73;1.83;;;;;;;8.95;55.28;98676.66;6156491;28;20624;-69
2021/01/21 05:31:48;;;;;;;4.57;2.03;;;;;;;9.04;54.97;98660.75;6152505;28;20226;-68
2021/01/21 05:35:12;;;;;;;4.00;1.80;;;;;;;9.12;54.10;98650.91;6165173;28;20755;-69
2021/01/21 05:38:32;;;;;;;2.03;1.73;;;;;;;9.16;54.21;98654.25;6153021;28;20234;-68
2021/01/21 05:42:12;;;;;;;4.47;1.40;;;;;;;9.07;54.61;98630.31;6164322;28;20622;-67
2021/01/21 05:45:39;;;;;;;3.13;1.67;;;;;;;9.39;53.32;98622.19;6159053;28;20258;-68
2021/01/21 05:49:04;;;;;;;3.57;2.07;;;;;;;9.54;53.22;98605.13;6167324;28;20231;-69
2021/01/21 05:52:28;;;;;;;4.20;2.07;;;;;;;9.39;53.41;98619.59;6164638;28;20238;-69
2021/01/21 05:55:51;;;;;;;3.23;1.97;;;;;;;9.73;52.26;98620.84;6160057;28;20227;-66
2021/01/21 05:59:14;;;;;;;3.00;1.60;;;;;;;9.61;52.29;98625.63;6146245;28;20324;-67
2021/01/21 06:02:36;;;;;;;2.10;1.80;;;;;;;9.64;52.36;98601.28;6160307;28;20939;-65
2021/01/21 06:06:06;;;;;;;3.00;1.67;;;;;;;9.75;51.65;98603.44;6159071;28;20608;-64
2021/01/21 06:09:27;;;;;;;3.23;1.50;;;;;;;9.54;52.07;98598.22;6161721;28;20234;-63
2021/01/21 06:12:49;;;;;;;2.20;1.40;;;;;;;10.05;51.25;98580.50;6162696;28;20222;-65
2021/01/21 06:16:10;;;;;;;2.80;1.67;;;;;;;9.93;51.25;98578.44;6166369;28;20241;-64
2021/01/21 06:19:32;;;;;;;3.27;1.30;;;;;;;10.08;50.80;98574.31;6165598;28;20294;-64
2021/01/21 06:23:02;;;;;;;1.33;1.20;;;;;;;10.22;50.38;98598.00;6154344;28;20250;-70
2021/01/21 06:26:25;;;;;;;2.30;1.77;;;;;;;10.14;50.55;98581.84;6167726;28;20235;-65
2021/01/21 06:29:47;;;;;;;2.20;1.60;;;;;;;10.23;50.15;98574.50;6170201;28;20234;-69
2021/01/21 06:33:08;;;;;;;2.57;1.67;;;;;;;10.20;50.42;98573.81;6168423;28;20325;-68
2021/01/21 06:36:30;;;;;;;1.67;1.47;;;;;;;10.38;49.63;98574.81;6155365;28;20254;-68
2021/01/21 06:39:52;;;;;;;2.90;1.70;;;;;;;10.38;49.71;98560.03;6156152;28;20608;-66
2021/01/21 06:43:17;;;;;;;2.33;1.73;;;;;;;10.55;49.38;98548.88;6173447;28;20226;-70
2021/01/21 06:46:38;;;;;;;2.17;1.63;;;;;;;10.44;49.41;98559.75;6171366;28;20234;-69
2021/01/21 06:50:02;;;;;;;3.10;1.50;;;;;;;10.51;49.62;98556.91;6169216;28;20486;-69
2021/01/21 06:53:24;;;;;;;2.40;1.30;;;;;;;10.52;49.16;98564.63;6169590;28;20234;-68
2021/01/21 06:56:44;;;;;;;3.43;1.77;;;;;;;10.55;49.72;98555.84;6177502;28;20633;-70
2021/01/21 07:00:06;;;;;;;3.60;2.13;;;;;;;10.70;48.89;98551.69;6165653;28;20612;-68
2021/01/21 07:03:28;;;;;;;3.97;1.30;;;;;;;10.34;49.96;98576.69;6167934;28;20321;-69
2021/01/21 07:07:12;;;;;;;3.50;2.10;;;;;;;10.54;49.25;98577.56;6168589;28;20258;-69
2021/01/21 07:10:37;;;;;;;5.20;1.93;;;;;;;10.60;49.40;98565.13;6167090;28;20235;-68
2021/01/21 07:13:58;;;;;;;1.77;1.07;;;;;;;10.44;49.50;98566.72;6154107;28;20254;-68
2021/01/21 07:17:18;;;;;;;2.90;1.40;;;;;;;10.49;49.75;98558.69;6165234;28;20819;-69
2021/01/21 07:21:06;;;;;;;1.67;1.47;;;;;;;10.54;49.31;98568.00;6171145;28;20258;-68
2021/01/21 07:24:27;;;;;;;3.90;1.90;;;;;;;10.49;49.48;98564.78;6166523;28;20618;-68
2021/01/21 07:27:54;;;;;;;4.17;2.10;;;;;;;10.57;49.46;98577.44;6167259;28;20234;-67
2021/01/21 07:31:15;;;;;;;4.47;1.53;;;;;;;10.62;49.49;98565.03;6160658;28;20313;-67
2021/01/21 07:34:48;;;;;;;4.03;1.73;;;;;;;10.94;48.84;98565.34;6168571;28;20238;-69
2021/01/21 07:38:08;;;;;;;3.23;1.83;;;;;;;10.64;49.27;98584.03;6169402;28;20234;-69
2021/01/21 07:41:52;;;;;;;3.93;1.37;;;;;;;10.87;49.36;98605.59;6165155;28;20246;-68
2021/01/21 07:45:26;;;;;;;2.20;1.50;;;;;;;10.99;49.17;98610.22;6169835;28;20611;-68
2021/01/21 07:48:46;;;;;;;5.03;2.37;;;;;;;11.02;49.24;98652.63;6164899;28;20230;-69
2021/01/21 07:52:07;;;;;;;3.07;2.30;;;;;;;10.85;50.14;98660.34;6164420;28;20234;-63
2021/01/21 07:55:32;;;;;;;2.97;1.60;;;;;;;10.79;51.81;98799.44;6168545;28;20869;-65
2021/01/21 07:58:59;;;;;;;2.73;0.83;;;;;;;9.19;61.05;98873.13;6160525;28;20544;-60
2021/01/21 08:02:21;;;;;;;2.00;0.60;;;;;;;8.69;65.17;98860.09;6165623;28;20230;-59
2021/01/21 08:05:42;;;;;;;1.93;0.53;;;;;;;8.35;69.25;98862.88;6149195;28;20831;-60
2021/01/21 08:09:11;;;;;;;1.27;0.60;;;;;;;8.27;69.45;98829.41;6165898;28;20234;-60
2021/01/21 08:12:32;;;;;;;2.97;1.17;;;;;;;7.84;66.05;98870.41;6152726;28;20229;-59
2021/01/21 08:15:53;;;;;;;0.70;0.70;;;;;;;7.85;64.58;98848.81;6154591;28;20222;-57
2021/01/21 08:19:14;;;;;;;1.53;0.90;;;;;;;8.05;63.36;98852.56;6164285;28;20317;-60
2021/01/21 08:22:34;;;;;;;1.20;1.03;;;;;;;7.77;62.33;98863.72;6161869;28;20230;-59
2021/01/21 08:25:55;;;;;;;2.63;1.10;;;;;;;7.92;62.78;98871.94;6166331;28;20231;-59
2021/01/21 08:29:15;;;;;;;1.77;1.23;;;;;;;8.10;61.32;98866.19;6158149;28;20279;-58
2021/01/21 08:32:36;;;;;;;1.20;1.10;;;;;;;7.88;61.10;98897.09;6157076;28;20234;-59
2021/01/21 08:36:02;;;;;;;2.63;0.87;;;;;;;7.95;61.37;98883.09;6164902;28;20408;-61
2021/01/21 08:39:22;;;;;;;1.33;0.60;;;;;;;8.06;60.79;98868.06;6158479;28;20235;-60
2021/01/21 08:42:45;;;;;;;2.70;1.10;;;;;;;8.42;59.88;98836.72;6165225;28;20325;-59
2021/01/21 08:46:12;;;;;;;1.43;0.70;;;;;;;8.09;59.93;98890.44;6168162;28;20515;-59
2021/01/21 08:49:34;;;;;;;1.43;1.10;;;;;;;7.92;60.01;98893.53;6163331;28;20234;-59
2021/01/21 08:52:56;;;;;;;1.50;0.77;;;;;;;7.85;59.85;98908.41;6157164;28;20738;-59
2021/01/21 08:56:17;;;;;;;2.63;2.17;;;;;;;8.54;58.87;98850.22;6153373;28;20219;-59
2021/01/21 08:59:38;;;;;;;2.80;1.00;;;;;;;8.41;58.52;98873.94;6159366;28;20800;-56
2021/01/21 09:02:59;;;;;;;3.10;1.07;;;;;;;8.53;57.90;98877.03;6154589;28;20230;-62
2021/01/21 09:06:21;;;;;;;2.83;1.10;;;;;;;8.29;57.90;98921.81;6162035;28;20525;-62
2021/01/21 09:09:42;;;;;;;1.20;0.90;;;;;;;8.29;58.21;98921.81;6161511;28;20222;-62
2021/01/21 09:13:03;;;;;;;2.30;1.03;;;;;;;8.67;57.02;98921.56;6157917;28;20230;-62
2021/01/21 09:16:39;;;;;;;1.90;1.00;;;;;;;8.87;56.91;98926.97;6144953;28;20314;-61
2021/01/21 09:20:02;;;;;;;1.63;0.90;;;;;;;8.45;58.36;98945.59;6160594;28;20238;-62
2021/01/21 09:23:22;;;;;;;2.50;1.23;;;;;;;8.66;57.96;98964.81;6164818;28;20235;-61
2021/01/21 09:26:43;;;;;;;1.60;0.93;;;;;;;8.51;58.91;98959.25;6161205;28;20230;-62
2021/01/21 09:30:06;;;;;;;1.83;1.20;;;;;;;8.64;58.27;98953.63;6160247;28;20242;-59
2021/01/21 09:33:27;;;;;;;1.93;1.37;;;;;;;8.65;58.42;98980.47;6157423;28;20227;-57
2021/01/21 09:36:47;;;;;;;2.27;0.70;;;;;;;8.76;58.14;98949.84;6156205;28;20254;-59
2021/01/21 09:40:09;;;;;;;6.47;2.17;;;;;;;8.69;57.96;98948.31;6160653;28;20238;-61
2021/01/21 09:43:31;;;;;;;2.30;1.17;;;;;;;8.35;58.79;98964.03;6162012;28;20546;-60
2021/01/21 09:46:51;;;;;;;3.07;1.40;;;;;;;8.37;58.83;98983.81;6162100;28;20254;-60
2021/01/21 09:50:13;;;;;;;4.77;1.63;;;;;;;8.32;58.57;98995.22;6156597;28;20235;-58
2021/01/21 09:53:33;;;;;;;2.80;1.40;;;;;;;8.36;58.23;98987.31;6159300;28;20246;-60
2021/01/21 09:56:54;;;;;;;2.30;1.70;;;;;;;8.35;58.22;98989.97;6159442;28;20258;-59
2021/01/21 10:00:16;;;;;;;2.57;1.73;;;;;;;8.56;57.90;98994.53;6165241;28;20234;-60
2021/01/21 10:03:37;;;;;;;4.00;2.20;;;;;;;8.38;58.41;99019.25;6158391;28;20230;-61
2021/01/21 10:06:57;;;;;;;6.83;1.77;;;;;;;8.12;59.32;99012.19;6163932;28;20234;-60
2021/01/21 10:10:17;;;;;;;6.70;2.13;;;;;;;8.42;58.56;99028.69;6163300;28;20254;-60
2021/01/21 10:13:38;;;;;;;3.90;1.50;;;;;;;8.61;57.63;99022.97;6156693;28;20230;-60
2021/01/21 10:16:59;;;;;;;2.03;1.33;;;;;;;8.34;57.80;99025.44;6153101;28;20543;-60
2021/01/21 10:20:20;;;;;;;3.37;1.63;;;;;;;8.65;57.40;99040.16;6151683;28;20226;-60
2021/01/21 10:23:40;;;;;;;4.57;1.80;;;;;;;8.72;56.92;99030.41;6161449;28;20231;-61
2021/01/21 10:27:01;;;;;;;4.17;1.80;;;;;;;8.83;56.24;99039.56;6161244;28;20487;-58
2021/01/21 10:30:22;;;;;;;3.57;1.20;;;;;;;8.97;55.16;99040.91;6159796;28;20605;-60
2021/01/21 10:33:43;;;;;;;3.23;1.43;;;;;;;9.34;54.74;99018.97;6152779;28;20235;-59
2021/01/21 10:37:04;;;;;;;4.10;1.87;;;;;;;9.59;52.90;99040.63;6157785;28;20392;-60
2021/01/21 10:40:25;;;;;;;4.33;1.70;;;;;;;9.88;52.25;99025.81;6162118;28;20234;-59
2021/01/21 10:43:45;;;;;;;2.13;1.27;;;;;;;9.44;52.67;99031.63;6159820;28;20617;-61
2021/01/21 10:47:05;;;;;;;4.77;1.30;;;;;;;9.27;52.47;99045.16;6152286;28;20234;-61
2021/01/21 10:50:27;;;;;;;11.97;3.30;;;;;;;9.40;52.41;99031.75;6158313;28;20671;-59
2021/01/21 10:53:47;;;;;;;2.67;1.40;;;;;;;9.35;52.34;99037.09;6154825;28;20234;-60
2021/01/21 10:57:07;;;;;;;2.60;1.20;;;;;;;9.03;52.68;99058.88;6157760;28;20672;-60
2021/01/21 11:00:28;;;;;;;2.43;1.50;;;;;;;10.01;50.31;99060.88;6156946;28;20227;-59
2021/01/21 11:03:48;;;;;;;2.40;1.53;;;;;;;9.73;50.75;99031.53;6166154;28;20226;-60
2021/01/21 11:07:09;;;;;;;2.93;1.57;;;;;;;8.97;52.56;99049.53;6164602;28;20322;-60
2021/01/21 11:10:30;;;;;;;3.03;1.67;;;;;;;9.11;51.52;99040.47;6158572;28;20593;-56
2021/01/21 11:13:52;;;;;;;2.73;1.20;;;;;;;9.92;50.44;99027.38;6154602;28;20242;-59
2021/01/21 11:17:12;;;;;;;3.30;1.50;;;;;;;10.13;49.20;99033.59;6166237;28;20235;-61
2021/01/21 11:20:34;;;;;;;3.47;1.17;;;;;;;9.92;49.45;99031.75;6159539;28;20260;-61
2021/01/21 11:23:56;;;;;;;2.57;1.73;;;;;;;9.80;49.61;99031.25;6166711;28;20235;-61
2021/01/21 11:27:17;;;;;;;3.50;1.43;;;;;;;10.08;48.18;99039.84;6164430;28;20234;-60
2021/01/21 11:30:37;;;;;;;2.47;1.50;;;;;;;9.17;50.40;99033.34;6159067;28;20250;-61
2021/01/21 11:33:57;;;;;;;3.57;1.70;;;;;;;10.28;47.87;99036.56;6152096;28;20230;-59
2021/01/21 11:37:17;;;;;;;3.20;1.70;;;;;;;10.07;48.03;99051.19;6163733;28;20632;-61
2021/01/21 11:40:40;;;;;;;2.40;1.20;;;;;;;9.85;47.86;99047.56;6164649;28;20226;-62
2021/01/21 11:44:00;;;;;;;3.77;1.40;;;;;;;9.67;48.92;99050.78;6162927;28;20226;-61
2021/01/21 11:47:21;;;;;;;3.93;2.30;;;;;;;9.90;48.07;99039.59;6158920;28;20230;-61
2021/01/21 11:50:42;;;;;;;2.63;1.30;;;;;;;10.14;46.45;99037.91;6156270;28;20234;-58
2021/01/21 11:54:02;;;;;;;3.63;1.70;;;;;;;9.93;47.32;99041.25;6157568;28;20354;-60
2021/01/21 11:57:24;;;;;;;1.93;1.73;;;;;;;9.38;48.02;99046.53;6158805;28;20313;-61
2021/01/21 12:00:44;;;;;;;4.03;2.43;;;;;;;10.23;45.34;99041.91;6159183;28;20756;-61
2021/01/21 12:04:05;;;;;;;4.43;1.40;;;;;;;9.57;45.87;99032.03;6155902;28;20235;-60
2021/01/21 12:07:25;;;;;;;5.07;1.47;;;;;;;9.48;46.56;99032.38;6164642;28;20541;-60
2021/01/21 12:10:45;;;;;;;4.20;1.73;;;;;;;9.84;46.52;99024.22;6163089;28;20680;-59
2021/01/21 12:14:08;;;;;;;3.20;1.40;;;;;;;9.43;47.24;99048.09;6158886;28;20234;-61
2021/01/21 12:17:28;;;;;;;5.23;2.30;;;;;;;9.77;46.43;99074.72;6147683;28;20325;-62
2021/01/21 12:20:49;;;;;;;4.97;1.73;;;;;;;9.14;46.95;99053.38;6140662;28;20234;-61
2021/01/21 12:24:10;;;;;;;4.60;1.33;;;;;;;9.68;45.89;99041.25;6148588;28;20797;-62
2021/01/21 12:27:30;;;;;;;12.03;2.73;;;;;;;10.09;45.27;99036.38;6145293;28;20242;-63
2021/01/21 12:30:52;;;;;;;3.13;1.27;;;;;;;10.19;44.23;99048.13;6154169;28;20541;-61
2021/01/21 12:34:12;;;;;;;1.60;1.30;;;;;;;10.19;44.17;99030.75;6146493;28;20663;-60
2021/01/21 12:37:33;;;;;;;5.97;2.17;;;;;;;9.44;46.64;99054.13;6152230;28;20235;-60
2021/01/21 12:40:53;;;;;;;3.97;1.70;;;;;;;9.65;46.55;99056.06;6147477;28;20242;-60
2021/01/21 12:44:13;;;;;;;9.00;2.33;;;;;;;9.93;46.21;99038.66;6148234;28;20313;-59
2021/01/21 12:47:34;;;;;;;2.70;2.00;;;;;;;10.18;45.17;99051.66;6150271;28;20668;-62
2021/01/21 12:50:55;;;;;;;4.60;2.20;;;;;;;9.49;45.68;99036.66;6158128;28;20222;-61
2021/01/21 12:54:16;;;;;;;5.20;2.40;;;;;;;9.47;46.28;99022.88;6150935;28;20274;-59
2021/01/21 12:57:36;;;;;;;6.20;1.73;;;;;;;9.86;45.38;99028.44;6147485;28;20243;-59
2021/01/21 13:00:57;;;;;;;4.27;1.50;;;;;;;9.02;46.97;99054.63;6153902;28;20251;-61
2021/01/21 13:04:18;;;;;;;7.63;2.73;;;;;;;9.80;45.77;99027.81;6141692;28;20313;-58
2021/01/21 13:07:39;;;;;;;3.97;1.70;;;;;;;9.81;45.56;99022.59;6148817;28;20587;-61
2021/01/21 13:10:59;;;;;;;6.57;1.80;;;;;;;9.68;46.07;99023.06;6154954;28;20297;-61
2021/01/21 13:14:19;;;;;;;3.13;2.03;;;;;;;9.35;46.66;99031.06;6140287;28;20222;-62
2021/01/21 13:17:40;;;;;;;5.77;1.50;;;;;;;10.36;44.61;99022.38;6148836;28;21452;-60
2021/01/21 13:21:01;;;;;;;5.83;1.93;;;;;;;9.56;45.32;99045.94;6149823;28;20706;-59
2021/01/21 13:24:23;;;;;;;5.03;2.20;;;;;;;9.53;46.18;99022.66;6141769;28;20242;-60
2021/01/21 13:27:45;;;;;;;5.47;1.67;;;;;;;9.73;45.93;99026.34;6149806;28;20599;-59
2021/01/21 13:31:05;;;;;;;4.33;1.73;;;;;;;9.66;46.46;99017.91;6153306;28;20324;-61
2021/01/21 13:34:25;;;;;;;5.83;1.83;;;;;;;9.59;46.69;99009.44;6146416;28;20246;-59
2021/01/21 13:37:46;;;;;;;7.27;2.57;;;;;;;9.06;47.96;99044.06;6147674;28;20238;-59
2021/01/21 13:41:08;;;;;;;6.63;1.73;;;;;;;9.19;48.07;99047.16;6146709;28;20250;-59
2021/01/21 13:44:29;;;;;;;3.40;1.60;;;;;;;9.43;47.32;99042.06;6154503;28;20234;-59
2021/01/21 13:47:49;;;;;;;2.47;1.57;;;;;;;9.65;47.33;99040.47;6156580;28;20241;-61
2021/01/21 13:51:10;;;;;;;11.13;2.20;;;;;;;9.21;47.88;99040.16;6157575;28;20234;-59
2021/01/21 13:54:31;;;;;;;5.80;2.00;;;;;;;9.03;48.39;99041.59;6152357;28;20504;-58
2021/01/21 13:57:51;;;;;;;5.17;3.00;;;;;;;9.79;46.72;99039.13;6156307;28;20231;-60
2021/01/21 14:01:11;;;;;;;3.90;1.93;;;;;;;9.47;47.55;99035.84;6158552;28;20226;-61
2021/01/21 14:04:32;;;;;;;6.60;2.30;;;;;;;9.36;47.44;99043.16;6156450;28;20270;-61
2021/01/21 14:07:52;;;;;;;7.50;2.37;;;;;;;9.01;49.19;99045.09;6157948;28;20616;-61
2021/01/21 14:11:14;;;;;;;7.20;2.13;;;;;;;9.37;48.08;99050.91;6153772;28;20245;-61
2021/01/21 14:14:35;;;;;;;7.10;2.13;;;;;;;9.01;49.23;99045.09;6157894;28;20695;-59
2021/01/21 14:17:55;;;;;;;4.40;2.00;;;;;;;9.23;47.87;99058.28;6155105;28;20775;-59
2021/01/21 14:21:17;;;;;;;12.17;3.30;;;;;;;9.10;48.37;99034.44;6156947;28;20226;-60
2021/01/21 14:24:37;;;;;;;6.63;1.70;;;;;;;8.93;49.20;99045.34;6153166;28;20230;-60
2021/01/21 14:27:59;;;;;;;4.23;1.80;;;;;;;9.45;47.53;99042.84;6153950;28;20226;-61
2021/01/21 14:31:19;;;;;;;6.30;2.17;;;;;;;8.78;49.13;99083.00;6140441;28;20261;-58
2021/01/21 14:34:40;;;;;;;5.40;1.97;;;;;;;9.39;48.87;99049.09;6154341;28;20516;-60
2021/01/21 14:38:01;;;;;;;5.27;2.33;;;;;;;9.33;48.29;99064.03;6158313;28;20384;-61
2021/01/21 14:41:21;;;;;;;4.77;3.03;;;;;;;9.07;48.79;99068.28;6153749;28;20234;-58
2021/01/21 14:44:42;;;;;;;5.57;1.80;;;;;;;9.04;48.68;99078.78;6153101;28;20222;-59
2021/01/21 14:48:03;;;;;;;3.43;1.40;;;;;;;8.75;49.78;99044.16;6155689;28;20242;-61
2021/01/21 14:51:24;;;;;;;4.40;2.13;;;;;;;9.13;48.81;99062.06;6158931;28;20246;-60
2021/01/21 14:54:44;;;;;;;5.90;2.77;;;;;;;9.25;49.29;99053.91;6154844;28;20272;-59
2021/01/21 14:58:05;;;;;;;6.07;2.10;;;;;;;8.87;49.35;99064.53;6153486;28;20274;-60
2021/01/21 15:01:26;;;;;;;5.13;1.90;;;;;;;9.01;49.97;99037.31;6150008;28;20238;-61
2021/01/21 15:04:46;;;;;;;4.63;1.77;;;;;;;9.21;49.68;99045.34;6146951;28;20776;-59
2021/01/21 15:08:07;;;;;;;5.43;2.07;;;;;;;9.19;49.79;99041.94;6158657;28;20612;-60
2021/01/21 15:11:27;;;;;;;5.60;2.40;;;;;;;9.26;49.68;99029.59;6157856;28;20226;-59
2021/01/21 15:14:48;;;;;;;4.40;2.00;;;;;;;9.69;48.49;99035.13;6156625;28;20664;-60
2021/01/21 15:18:09;;;;;;;4.97;2.03;;;;;;;9.32;50.56;99042.38;6161065;28;20309;-57
2021/01/21 15:21:30;;;;;;;4.93;1.60;;;;;;;8.90;50.41;99055.84;6156346;28;20238;-59
2021/01/21 15:24:51;;;;;;;5.40;2.10;;;;;;;8.60;51.25;99073.16;6166004;28;20338;-57
2021/01/21 15:28:16;;;;;;;4.87;1.87;;;;;;;8.51;51.47;99060.44;6154261;28;20219;-59
2021/01/21 15:31:36;;;;;;;4.57;2.67;;;;;;;8.87;50.40;99051.56;6156988;28;20226;-59
2021/01/21 15:34:57;;;;;;;9.23;2.00;;;;;;;9.11;50.11;99051.75;6158163;28;20318;-61
2021/01/21 15:38:18;;;;;;;4.57;2.00;;;;;;;8.74;50.87;99033.81;6141450;28;20234;-60
2021/01/21 15:41:38;;;;;;;6.70;1.60;;;;;;;8.64;51.42;99033.25;6162390;28;20321;-60
2021/01/21 15:45:00;;;;;;;6.67;1.77;;;;;;;8.87;50.53;99041.19;6157754;28;20238;-60
2021/01/21 15:48:21;;;;;;;4.73;1.70;;;;;;;8.70;50.53;99095.34;6160156;28;20416;-61
2021/01/21 15:51:43;;;;;;;5.70;1.97;;;;;;;8.89;50.47;99046.34;6161941;28;20226;-61
2021/01/21 15:55:04;;;;;;;4.93;2.70;;;;;;;8.63;50.98;99034.16;6160775;28;20254;-61
2021/01/21 15:58:25;;;;;;;6.07;1.87;;;;;;;8.71;50.93;99033.94;6164093;28;20233;-61
2021/01/21 16:01:45;;;;;;;4.77;1.60;;;;;;;9.11;49.84;99023.16;6159168;28;20322;-61
2021/01/21 16:05:09;;;;;;;3.93;2.30;;;;;;;8.56;50.74;99046.44;6142895;28;20492;-61
2021/01/21 16:08:30;;;;;;;5.37;1.70;;;;;;;8.87;50.34;99028.19;6162034;28;20629;-60